createdAt,value
2018-10-09T00:00:01.049Z,6.65
2018-10-09T00:00:13.433Z,6.65
2018-10-09T00:00:25.902Z,6.65
2018-10-09T00:00:38.552Z,6.65
2018-10-09T00:00:52.012Z,6.65
2018-10-09T00:01:05.154Z,6.65
2018-10-09T00:01:17.570Z,6.65
2018-10-09T00:01:29.982Z,6.65
2018-10-09T00:01:42.400Z,6.65
2018-10-09T00:01:54.811Z,6.65
2018-10-09T00:02:07.194Z,6.65
2018-10-09T00:02:19.593Z,6.65
2018-10-09T00:02:32.000Z,6.65
2018-10-09T00:02:44.401Z,6.65
2018-10-09T00:02:56.797Z,6.65
2018-10-09T00:03:09.205Z,7.25
2018-10-09T00:03:21.594Z,7.25
2018-10-09T00:03:33.975Z,7.25
2018-10-09T00:03:46.349Z,7.25
2018-10-09T00:03:58.829Z,7.25
2018-10-09T00:04:11.483Z,7.25
2018-10-09T00:04:23.872Z,7.25
2018-10-09T00:04:36.255Z,7.25
2018-10-09T00:04:48.670Z,7.25
2018-10-09T00:05:01.198Z,7.25
2018-10-09T00:05:13.594Z,7.25
2018-10-09T00:05:25.999Z,7.25
2018-10-09T00:05:38.546Z,7.25
2018-10-09T00:05:50.942Z,7.25
2018-10-09T00:06:03.337Z,7.25
2018-10-09T00:06:15.741Z,7.25
2018-10-09T00:06:28.161Z,7.25
2018-10-09T00:06:40.599Z,7.25
2018-10-09T00:06:52.991Z,7.25
2018-10-09T00:07:05.386Z,7.25
2018-10-09T00:07:17.772Z,7.25
2018-10-09T00:07:30.196Z,7.25
2018-10-09T00:07:42.782Z,7.25
2018-10-09T00:07:55.176Z,7.25
2018-10-09T00:08:07.594Z,7.25
2018-10-09T00:08:20.025Z,7.25
2018-10-09T00:08:32.389Z,7.25
2018-10-09T00:08:44.761Z,7.25
2018-10-09T00:08:57.124Z,7.25
2018-10-09T00:09:09.506Z,7.25
2018-10-09T00:09:21.880Z,7.25
2018-10-09T00:09:34.267Z,7.25
2018-10-09T00:09:46.652Z,7.25
2018-10-09T00:09:59.058Z,7.25
2018-10-09T00:10:11.528Z,7.25
2018-10-09T00:10:23.903Z,7.25
2018-10-09T00:10:36.296Z,7.25
2018-10-09T00:10:48.679Z,7.25
2018-10-09T00:11:01.063Z,7.25
2018-10-09T00:11:13.445Z,7.25
2018-10-09T00:11:25.843Z,7.25
2018-10-09T00:11:38.224Z,7.25
2018-10-09T00:11:50.632Z,7.25
2018-10-09T00:12:03.016Z,7.25
2018-10-09T00:12:15.382Z,7.25
2018-10-09T00:12:27.781Z,7.25
2018-10-09T00:12:40.336Z,7.25
2018-10-09T00:12:52.789Z,7.25
2018-10-09T00:13:05.171Z,7.25
2018-10-09T00:13:17.559Z,7.25
2018-10-09T00:13:29.962Z,7.25
2018-10-09T00:13:42.420Z,7.25
2018-10-09T00:13:54.862Z,7.25
2018-10-09T00:14:07.263Z,7.25
2018-10-09T00:14:19.646Z,7.25
2018-10-09T00:14:32.026Z,7.25
2018-10-09T00:14:44.430Z,7.25
2018-10-09T00:14:56.996Z,7.25
2018-10-09T00:15:09.397Z,7.25
2018-10-09T00:15:21.805Z,7.25
2018-10-09T00:15:34.247Z,7.25
2018-10-09T00:15:46.655Z,7.25
2018-10-09T00:15:59.034Z,7.25
2018-10-09T00:16:11.413Z,7.25
2018-10-09T00:16:23.814Z,7.25
2018-10-09T00:16:36.217Z,7.25
2018-10-09T00:16:48.602Z,7.25
2018-10-09T00:17:00.981Z,7.25
2018-10-09T00:17:13.647Z,7.25
2018-10-09T00:17:26.024Z,7.25
2018-10-09T00:17:38.416Z,7.25
2018-10-09T00:17:50.802Z,7.25
2018-10-09T00:18:03.189Z,7.25
2018-10-09T00:18:15.587Z,7.25
2018-10-09T00:18:27.990Z,7.25
2018-10-09T00:18:40.400Z,7.25
2018-10-09T00:18:52.857Z,7.25
2018-10-09T00:19:05.264Z,7.25
2018-10-09T00:19:17.660Z,7.25
2018-10-09T00:19:30.051Z,7.25
2018-10-09T00:19:42.442Z,7.25
2018-10-09T00:19:54.837Z,7.25
2018-10-09T00:20:07.423Z,7.25
2018-10-09T00:20:19.830Z,7.25
2018-10-09T00:20:32.225Z,7.25
2018-10-09T00:20:44.606Z,7.25
2018-10-09T00:20:57.471Z,7.25
2018-10-09T00:21:09.867Z,7.25
2018-10-09T00:21:22.260Z,7.25
2018-10-09T00:21:34.650Z,7.25
2018-10-09T00:21:47.051Z,7.25
2018-10-09T00:21:59.518Z,7.25
2018-10-09T00:22:11.919Z,7.25
2018-10-09T00:22:24.401Z,7.25
2018-10-09T00:22:36.827Z,7.25
2018-10-09T00:22:49.213Z,7.25
2018-10-09T00:23:01.643Z,7.25
2018-10-09T00:23:14.026Z,7.77
2018-10-09T00:23:26.420Z,7.77
2018-10-09T00:23:38.812Z,7.77
2018-10-09T00:23:51.196Z,7.77
2018-10-09T00:24:03.606Z,7.77
2018-10-09T00:24:16.116Z,7.77
2018-10-09T00:24:28.662Z,7.77
2018-10-09T00:24:41.040Z,7.77
2018-10-09T00:24:53.698Z,7.77
2018-10-09T00:25:06.292Z,7.77
2018-10-09T00:25:18.924Z,7.77
2018-10-09T00:25:31.341Z,7.77
2018-10-09T00:25:43.730Z,7.77
2018-10-09T00:25:56.373Z,7.77
2018-10-09T00:26:10.018Z,7.77
2018-10-09T00:26:23.263Z,7.77
2018-10-09T00:26:35.661Z,7.77
2018-10-09T00:26:48.052Z,7.77
2018-10-09T00:27:00.479Z,7.77
2018-10-09T00:27:12.946Z,7.77
2018-10-09T00:27:25.368Z,7.77
2018-10-09T00:27:37.791Z,7.77
2018-10-09T00:27:50.179Z,7.77
2018-10-09T00:28:02.568Z,7.77
2018-10-09T00:28:14.955Z,7.77
2018-10-09T00:28:27.340Z,7.77
2018-10-09T00:28:39.727Z,7.77
2018-10-09T00:28:52.102Z,7.77
2018-10-09T00:29:04.480Z,7.77
2018-10-09T00:29:16.892Z,7.77
2018-10-09T00:29:29.278Z,7.77
2018-10-09T00:29:41.683Z,7.77
2018-10-09T00:29:54.081Z,7.77
2018-10-09T00:30:06.481Z,7.77
2018-10-09T00:30:18.882Z,7.77
2018-10-09T00:30:31.317Z,7.77
2018-10-09T00:30:43.761Z,7.77
2018-10-09T00:30:56.524Z,7.77
2018-10-09T00:31:08.930Z,7.77
2018-10-09T00:31:21.322Z,7.77
2018-10-09T00:31:33.695Z,7.77
2018-10-09T00:31:46.093Z,7.77
2018-10-09T00:31:58.482Z,7.77
2018-10-09T00:32:10.893Z,7.77
2018-10-09T00:32:23.271Z,7.77
2018-10-09T00:32:35.656Z,7.77
2018-10-09T00:32:48.435Z,7.77
2018-10-09T00:33:00.845Z,7.77
2018-10-09T00:33:13.217Z,7.21
2018-10-09T00:33:25.609Z,7.21
2018-10-09T00:33:37.999Z,7.21
2018-10-09T00:33:50.398Z,7.21
2018-10-09T00:34:02.792Z,7.21
2018-10-09T00:34:15.189Z,7.21
2018-10-09T00:34:27.594Z,7.21
2018-10-09T00:34:40.028Z,7.21
2018-10-09T00:34:52.424Z,7.21
2018-10-09T00:35:04.899Z,7.21
2018-10-09T00:35:17.431Z,7.21
2018-10-09T00:35:29.860Z,7.21
2018-10-09T00:35:42.276Z,7.21
2018-10-09T00:35:55.071Z,7.21
2018-10-09T00:36:07.509Z,7.21
2018-10-09T00:36:19.901Z,7.21
2018-10-09T00:36:32.342Z,7.21
2018-10-09T00:36:44.731Z,7.21
2018-10-09T00:36:57.144Z,7.21
2018-10-09T00:37:09.546Z,7.21
2018-10-09T00:37:21.940Z,7.21
2018-10-09T00:37:34.321Z,7.21
2018-10-09T00:37:46.766Z,7.21
2018-10-09T00:37:59.143Z,7.21
2018-10-09T00:38:11.524Z,7.21
2018-10-09T00:38:23.916Z,7.21
2018-10-09T00:38:36.302Z,7.21
2018-10-09T00:38:48.697Z,7.21
2018-10-09T00:39:01.089Z,7.21
2018-10-09T00:39:13.482Z,7.21
2018-10-09T00:39:25.875Z,7.21
2018-10-09T00:39:38.257Z,7.21
2018-10-09T00:39:50.682Z,7.21
2018-10-09T00:40:03.122Z,7.21
2018-10-09T00:40:15.524Z,7.21
2018-10-09T00:40:27.924Z,7.21
2018-10-09T00:40:40.363Z,7.21
2018-10-09T00:40:53.328Z,7.21
2018-10-09T00:41:05.732Z,7.21
2018-10-09T00:41:18.137Z,7.21
2018-10-09T00:41:30.687Z,7.21
2018-10-09T00:41:43.091Z,7.21
2018-10-09T00:41:55.496Z,7.21
2018-10-09T00:42:07.878Z,7.21
2018-10-09T00:42:20.273Z,7.21
2018-10-09T00:42:32.693Z,7.21
2018-10-09T00:42:45.072Z,7.21
2018-10-09T00:42:57.485Z,7.21
2018-10-09T00:43:09.890Z,7.21
2018-10-09T00:43:22.307Z,7.13
2018-10-09T00:43:34.680Z,7.13
2018-10-09T00:43:47.090Z,7.13
2018-10-09T00:43:59.555Z,7.13
2018-10-09T00:44:11.949Z,7.13
2018-10-09T00:44:24.358Z,7.13
2018-10-09T00:44:36.764Z,7.13
2018-10-09T00:44:49.152Z,7.13
2018-10-09T00:45:01.561Z,7.13
2018-10-09T00:45:13.958Z,7.13
2018-10-09T00:45:26.346Z,7.13
2018-10-09T00:45:38.717Z,7.13
2018-10-09T00:45:51.102Z,7.13
2018-10-09T00:46:03.505Z,7.13
2018-10-09T00:46:15.889Z,7.13
2018-10-09T00:46:28.462Z,7.13
2018-10-09T00:46:40.859Z,7.13
2018-10-09T00:46:53.262Z,7.13
2018-10-09T00:47:05.654Z,7.13
2018-10-09T00:47:18.121Z,7.13
2018-10-09T00:47:30.542Z,7.13
2018-10-09T00:47:43.144Z,7.13
2018-10-09T00:47:55.533Z,7.13
2018-10-09T00:48:07.944Z,7.13
2018-10-09T00:48:20.364Z,7.13
2018-10-09T00:48:32.759Z,7.13
2018-10-09T00:48:45.149Z,7.13
2018-10-09T00:48:57.872Z,7.13
2018-10-09T00:49:10.271Z,7.13
2018-10-09T00:49:22.668Z,7.13
2018-10-09T00:49:35.187Z,7.13
2018-10-09T00:49:47.572Z,7.13
2018-10-09T00:49:59.959Z,7.13
2018-10-09T00:50:12.341Z,7.13
2018-10-09T00:50:24.731Z,7.13
2018-10-09T00:50:37.117Z,7.13
2018-10-09T00:50:49.507Z,7.13
2018-10-09T00:51:01.898Z,7.13
2018-10-09T00:51:14.316Z,7.13
2018-10-09T00:51:26.717Z,7.13
2018-10-09T00:51:39.097Z,7.13
2018-10-09T00:51:51.482Z,7.13
2018-10-09T00:52:03.856Z,7.13
2018-10-09T00:52:16.280Z,7.13
2018-10-09T00:52:28.871Z,7.13
2018-10-09T00:52:41.319Z,7.13
2018-10-09T00:52:53.771Z,7.13
2018-10-09T00:53:06.210Z,7.13
2018-10-09T00:53:18.718Z,7.63
2018-10-09T00:53:31.098Z,7.63
2018-10-09T00:53:43.469Z,7.63
2018-10-09T00:53:55.852Z,7.63
2018-10-09T00:54:08.236Z,7.63
2018-10-09T00:54:20.631Z,7.63
2018-10-09T00:54:33.054Z,7.63
2018-10-09T00:54:45.427Z,7.63
2018-10-09T00:54:57.811Z,7.63
2018-10-09T00:55:10.266Z,7.63
2018-10-09T00:55:22.901Z,7.63
2018-10-09T00:55:35.362Z,7.63
2018-10-09T00:55:47.926Z,7.63
2018-10-09T00:56:00.307Z,7.63
2018-10-09T00:56:12.743Z,7.63
2018-10-09T00:56:25.231Z,7.63
2018-10-09T00:56:37.749Z,7.63
2018-10-09T00:56:50.131Z,7.63
2018-10-09T00:57:02.507Z,7.63
2018-10-09T00:57:14.888Z,7.63
2018-10-09T00:57:27.717Z,7.63
2018-10-09T00:57:40.112Z,7.63
2018-10-09T00:57:52.481Z,7.63
2018-10-09T00:58:04.879Z,7.63
2018-10-09T00:58:17.251Z,7.63
2018-10-09T00:58:29.689Z,7.63
2018-10-09T00:58:42.136Z,7.63
2018-10-09T00:58:54.541Z,7.63
2018-10-09T00:59:06.945Z,7.63
2018-10-09T00:59:19.362Z,7.63
2018-10-09T00:59:31.761Z,7.63
2018-10-09T00:59:44.151Z,7.63
2018-10-09T00:59:56.735Z,7.63
2018-10-09T01:00:09.200Z,7.63
2018-10-09T01:00:21.664Z,7.63
2018-10-09T01:00:34.221Z,7.63
2018-10-09T01:00:46.624Z,7.63
2018-10-09T01:00:59.051Z,7.63
2018-10-09T01:01:11.467Z,7.63
2018-10-09T01:01:23.874Z,7.63
2018-10-09T01:01:36.302Z,7.63
2018-10-09T01:01:48.698Z,7.63
2018-10-09T01:02:01.105Z,7.63
2018-10-09T01:02:13.497Z,7.63
2018-10-09T01:02:25.938Z,7.63
2018-10-09T01:02:38.329Z,7.63
2018-10-09T01:02:50.747Z,7.63
2018-10-09T01:03:03.185Z,7.63
2018-10-09T01:03:15.580Z,7.35
2018-10-09T01:03:27.986Z,7.35
2018-10-09T01:03:40.387Z,7.35
2018-10-09T01:03:52.769Z,7.35
2018-10-09T01:04:05.289Z,7.35
2018-10-09T01:04:17.859Z,7.35
2018-10-09T01:04:30.242Z,7.35
2018-10-09T01:04:42.637Z,7.35
2018-10-09T01:04:55.023Z,7.35
2018-10-09T01:05:07.416Z,7.35
2018-10-09T01:05:19.832Z,7.35
2018-10-09T01:05:32.253Z,7.35
2018-10-09T01:05:44.768Z,7.35
2018-10-09T01:05:57.166Z,7.35
2018-10-09T01:06:09.545Z,7.35
2018-10-09T01:06:21.935Z,7.35
2018-10-09T01:06:34.334Z,7.35
2018-10-09T01:06:46.723Z,7.35
2018-10-09T01:06:59.120Z,7.35
2018-10-09T01:07:11.551Z,7.35
2018-10-09T01:07:23.957Z,7.35
2018-10-09T01:07:36.350Z,7.35
2018-10-09T01:07:48.739Z,7.35
2018-10-09T01:08:01.130Z,7.35
2018-10-09T01:08:13.522Z,7.35
2018-10-09T01:08:25.949Z,7.35
2018-10-09T01:08:38.476Z,7.35
2018-10-09T01:08:50.864Z,7.35
2018-10-09T01:09:03.743Z,7.35
2018-10-09T01:09:17.289Z,7.35
2018-10-09T01:09:30.083Z,7.35
2018-10-09T01:09:42.542Z,7.35
2018-10-09T01:09:54.930Z,7.35
2018-10-09T01:10:07.371Z,7.35
2018-10-09T01:10:19.764Z,7.35
2018-10-09T01:10:32.150Z,7.35
2018-10-09T01:10:44.536Z,7.35
2018-10-09T01:10:56.939Z,7.35
2018-10-09T01:11:09.406Z,7.35
2018-10-09T01:11:21.791Z,7.35
2018-10-09T01:11:34.197Z,7.35
2018-10-09T01:11:46.580Z,7.35
2018-10-09T01:11:58.980Z,7.35
2018-10-09T01:12:11.388Z,7.35
2018-10-09T01:12:23.772Z,7.35
2018-10-09T01:12:36.417Z,7.35
2018-10-09T01:12:48.816Z,7.35
2018-10-09T01:13:01.236Z,7.35
2018-10-09T01:13:13.610Z,7.87
2018-10-09T01:13:25.992Z,7.87
2018-10-09T01:13:38.411Z,7.87
2018-10-09T01:13:50.797Z,7.87
2018-10-09T01:14:03.197Z,7.87
2018-10-09T01:14:15.609Z,7.87
2018-10-09T01:14:28.026Z,7.87
2018-10-09T01:14:40.429Z,7.87
2018-10-09T01:14:52.871Z,7.87
2018-10-09T01:15:05.420Z,7.87
2018-10-09T01:15:17.810Z,7.87
2018-10-09T01:15:30.197Z,7.87
2018-10-09T01:15:42.599Z,7.87
2018-10-09T01:15:55.066Z,7.87
2018-10-09T01:16:07.486Z,7.87
2018-10-09T01:16:20.278Z,7.87
2018-10-09T01:16:32.677Z,7.87
2018-10-09T01:16:45.070Z,7.87
2018-10-09T01:16:57.470Z,7.87
2018-10-09T01:17:09.852Z,7.87
2018-10-09T01:17:22.290Z,7.87
2018-10-09T01:17:34.702Z,7.87
2018-10-09T01:17:47.079Z,7.87
2018-10-09T01:17:59.496Z,7.87
2018-10-09T01:18:11.864Z,7.87
2018-10-09T01:18:24.240Z,7.87
2018-10-09T01:18:36.618Z,7.87
2018-10-09T01:18:49.012Z,7.87
2018-10-09T01:19:01.414Z,7.87
2018-10-09T01:19:13.825Z,7.87
2018-10-09T01:19:26.231Z,7.87
2018-10-09T01:19:38.633Z,7.87
2018-10-09T01:19:51.007Z,7.87
2018-10-09T01:20:03.513Z,7.87
2018-10-09T01:20:15.899Z,7.87
2018-10-09T01:20:28.287Z,7.87
2018-10-09T01:20:40.677Z,7.87
2018-10-09T01:20:53.559Z,7.87
2018-10-09T01:21:05.950Z,7.87
2018-10-09T01:21:18.359Z,7.87
2018-10-09T01:21:30.775Z,7.87
2018-10-09T01:21:43.165Z,7.87
2018-10-09T01:21:55.610Z,7.87
2018-10-09T01:22:08.003Z,7.87
2018-10-09T01:22:20.382Z,7.87
2018-10-09T01:22:32.798Z,7.87
2018-10-09T01:22:45.197Z,7.87
2018-10-09T01:22:57.612Z,7.87
2018-10-09T01:23:10.017Z,7.87
2018-10-09T01:23:22.419Z,6.68
2018-10-09T01:23:34.846Z,6.68
2018-10-09T01:23:47.236Z,6.68
2018-10-09T01:23:59.628Z,6.68
2018-10-09T01:24:12.149Z,6.68
2018-10-09T01:24:24.647Z,6.68
2018-10-09T01:24:37.033Z,6.68
2018-10-09T01:24:49.595Z,6.68
2018-10-09T01:25:02.004Z,6.68
2018-10-09T01:25:14.444Z,6.68
2018-10-09T01:25:26.845Z,6.68
2018-10-09T01:25:39.388Z,6.68
2018-10-09T01:25:51.802Z,6.68
2018-10-09T01:26:04.862Z,6.68
2018-10-09T01:26:17.249Z,6.68
2018-10-09T01:26:29.631Z,6.68
2018-10-09T01:26:42.052Z,6.68
2018-10-09T01:26:54.440Z,6.68
2018-10-09T01:27:06.842Z,6.68
2018-10-09T01:27:19.225Z,6.68
2018-10-09T01:27:31.639Z,6.68
2018-10-09T01:27:44.024Z,6.68
2018-10-09T01:27:56.411Z,6.68
2018-10-09T01:28:08.795Z,6.68
2018-10-09T01:28:21.201Z,6.68
2018-10-09T01:28:33.595Z,6.68
2018-10-09T01:28:45.970Z,6.68
2018-10-09T01:28:58.347Z,6.68
2018-10-09T01:29:10.752Z,6.68
2018-10-09T01:29:23.288Z,6.68
2018-10-09T01:29:35.714Z,6.68
2018-10-09T01:29:48.112Z,6.68
2018-10-09T01:30:00.537Z,6.68
2018-10-09T01:30:12.943Z,6.68
2018-10-09T01:30:25.371Z,6.68
2018-10-09T01:30:37.764Z,6.68
2018-10-09T01:30:50.262Z,6.68
2018-10-09T01:31:02.652Z,6.68
2018-10-09T01:31:15.069Z,6.68
2018-10-09T01:31:27.470Z,6.68
2018-10-09T01:31:39.855Z,6.68
2018-10-09T01:31:52.244Z,6.68
2018-10-09T01:32:04.643Z,6.68
2018-10-09T01:32:17.025Z,6.68
2018-10-09T01:32:29.409Z,6.68
2018-10-09T01:32:42.178Z,6.68
2018-10-09T01:32:54.585Z,6.68
2018-10-09T01:33:06.973Z,6.68
2018-10-09T01:33:19.380Z,7.05
2018-10-09T01:33:31.788Z,7.05
2018-10-09T01:33:44.211Z,7.05
2018-10-09T01:33:56.633Z,7.05
2018-10-09T01:34:09.052Z,7.05
2018-10-09T01:34:21.487Z,7.05
2018-10-09T01:34:33.918Z,7.05
2018-10-09T01:34:46.320Z,7.05
2018-10-09T01:34:58.700Z,7.05
2018-10-09T01:35:11.084Z,7.05
2018-10-09T01:35:23.491Z,7.05
2018-10-09T01:35:35.866Z,7.05
2018-10-09T01:35:48.277Z,7.05
2018-10-09T01:36:00.899Z,7.05
2018-10-09T01:36:13.288Z,7.05
2018-10-09T01:36:25.726Z,7.05
2018-10-09T01:36:38.113Z,7.05
2018-10-09T01:36:50.509Z,7.05
2018-10-09T01:37:02.906Z,7.05
2018-10-09T01:37:15.331Z,7.05
2018-10-09T01:37:27.747Z,7.05
2018-10-09T01:37:40.173Z,7.05
2018-10-09T01:37:52.781Z,7.05
2018-10-09T01:38:05.186Z,7.05
2018-10-09T01:38:17.577Z,7.05
2018-10-09T01:38:29.965Z,7.05
2018-10-09T01:38:42.380Z,7.05
2018-10-09T01:38:54.776Z,7.05
2018-10-09T01:39:07.151Z,7.05
2018-10-09T01:39:19.533Z,7.05
2018-10-09T01:39:31.937Z,7.05
2018-10-09T01:39:44.537Z,7.05
2018-10-09T01:39:56.940Z,7.05
2018-10-09T01:40:09.389Z,7.05
2018-10-09T01:40:21.843Z,7.05
2018-10-09T01:40:34.286Z,7.05
2018-10-09T01:40:46.666Z,7.05
2018-10-09T01:40:59.069Z,7.05
2018-10-09T01:41:11.459Z,7.05
2018-10-09T01:41:23.835Z,7.05
2018-10-09T01:41:36.228Z,7.05
2018-10-09T01:41:48.660Z,7.05
2018-10-09T01:42:01.060Z,7.05
2018-10-09T01:42:13.435Z,7.05
2018-10-09T01:42:25.818Z,7.05
2018-10-09T01:42:38.208Z,7.05
2018-10-09T01:42:50.596Z,7.05
2018-10-09T01:43:02.969Z,7.05
2018-10-09T01:43:15.360Z,7.75
2018-10-09T01:43:27.777Z,7.75
2018-10-09T01:43:40.430Z,7.75
2018-10-09T01:43:52.856Z,7.75
2018-10-09T01:44:05.292Z,7.75
2018-10-09T01:44:17.741Z,7.75
2018-10-09T01:44:30.187Z,7.75
2018-10-09T01:44:42.632Z,7.75
2018-10-09T01:44:55.059Z,7.75
2018-10-09T01:45:07.512Z,7.75
2018-10-09T01:45:20.101Z,7.75
2018-10-09T01:45:32.535Z,7.75
2018-10-09T01:45:44.904Z,7.75
2018-10-09T01:45:57.276Z,7.75
2018-10-09T01:46:09.913Z,7.75
2018-10-09T01:46:22.454Z,7.75
2018-10-09T01:46:34.891Z,7.75
2018-10-09T01:46:47.289Z,7.75
2018-10-09T01:46:59.730Z,7.75
2018-10-09T01:47:12.138Z,7.75
2018-10-09T01:47:24.776Z,7.75
2018-10-09T01:47:37.258Z,7.75
2018-10-09T01:47:49.717Z,7.75
2018-10-09T01:48:02.152Z,7.75
2018-10-09T01:48:14.606Z,7.75
2018-10-09T01:48:27.148Z,7.75
2018-10-09T01:48:39.555Z,7.75
2018-10-09T01:48:52.043Z,7.75
2018-10-09T01:49:04.535Z,7.75
2018-10-09T01:49:17.036Z,7.75
2018-10-09T01:49:29.601Z,7.75
2018-10-09T01:49:42.002Z,7.75
2018-10-09T01:49:54.422Z,7.75
2018-10-09T01:50:06.856Z,7.75
2018-10-09T01:50:19.251Z,7.75
2018-10-09T01:50:31.647Z,7.75
2018-10-09T01:50:44.035Z,7.75
2018-10-09T01:50:56.435Z,7.75
2018-10-09T01:51:08.814Z,7.75
2018-10-09T01:51:21.190Z,7.75
2018-10-09T01:51:33.587Z,7.75
2018-10-09T01:51:45.969Z,7.75
2018-10-09T01:51:58.381Z,7.75
2018-10-09T01:52:10.813Z,7.75
2018-10-09T01:52:23.344Z,7.75
2018-10-09T01:52:35.730Z,7.75
2018-10-09T01:52:48.095Z,7.75
2018-10-09T01:53:00.490Z,7.75
2018-10-09T01:53:13.017Z,7.75
2018-10-09T01:53:25.558Z,7.63
2018-10-09T01:53:37.953Z,7.63
2018-10-09T01:53:50.353Z,7.63
2018-10-09T01:54:02.754Z,7.63
2018-10-09T01:54:15.149Z,7.63
2018-10-09T01:54:27.538Z,7.63
2018-10-09T01:54:39.997Z,7.63
2018-10-09T01:54:52.400Z,7.63
2018-10-09T01:55:04.783Z,7.63
2018-10-09T01:55:17.322Z,7.63
2018-10-09T01:55:29.707Z,7.63
2018-10-09T01:55:42.228Z,7.63
2018-10-09T01:55:54.627Z,7.63
2018-10-09T01:56:07.034Z,7.63
2018-10-09T01:56:19.428Z,7.63
2018-10-09T01:56:32.027Z,7.63
2018-10-09T01:56:44.447Z,7.63
2018-10-09T01:56:56.862Z,7.63
2018-10-09T01:57:09.249Z,7.63
2018-10-09T01:57:21.788Z,7.63
2018-10-09T01:57:34.214Z,7.63
2018-10-09T01:57:46.611Z,7.63
2018-10-09T01:57:59.007Z,7.63
2018-10-09T01:58:11.390Z,7.63
2018-10-09T01:58:23.790Z,7.63
2018-10-09T01:58:36.179Z,7.63
2018-10-09T01:58:48.570Z,7.63
2018-10-09T01:59:00.970Z,7.63
2018-10-09T01:59:13.389Z,7.63
2018-10-09T01:59:25.934Z,7.63
2018-10-09T01:59:38.329Z,7.63
2018-10-09T01:59:50.857Z,7.63
2018-10-09T02:00:03.237Z,7.63
2018-10-09T02:00:15.653Z,7.63
2018-10-09T02:00:28.080Z,7.63
2018-10-09T02:00:40.497Z,7.63
2018-10-09T02:00:52.919Z,7.63
2018-10-09T02:01:05.369Z,7.63
2018-10-09T02:01:17.754Z,7.63
2018-10-09T02:01:30.160Z,7.63
2018-10-09T02:01:42.560Z,7.63
2018-10-09T02:01:54.944Z,7.63
2018-10-09T02:02:07.354Z,7.63
2018-10-09T02:02:19.766Z,7.63
2018-10-09T02:02:32.148Z,7.63
2018-10-09T02:02:44.537Z,7.63
2018-10-09T02:02:56.921Z,7.63
2018-10-09T02:03:09.318Z,7.63
2018-10-09T02:03:21.711Z,7.02
2018-10-09T02:03:34.083Z,7.02
2018-10-09T02:03:46.501Z,7.02
2018-10-09T02:03:58.983Z,7.02
2018-10-09T02:04:11.522Z,7.02
2018-10-09T02:04:23.891Z,7.02
2018-10-09T02:04:36.286Z,7.02
2018-10-09T02:04:48.688Z,7.02
2018-10-09T02:05:01.088Z,7.02
2018-10-09T02:05:13.490Z,7.02
2018-10-09T02:05:25.896Z,7.02
2018-10-09T02:05:38.297Z,7.02
2018-10-09T02:05:50.678Z,7.02
2018-10-09T02:06:03.053Z,7.02
2018-10-09T02:06:15.463Z,7.02
2018-10-09T02:06:27.867Z,7.02
2018-10-09T02:06:40.271Z,7.02
2018-10-09T02:06:52.637Z,7.02
2018-10-09T02:07:05.034Z,7.02
2018-10-09T02:07:17.435Z,7.02
2018-10-09T02:07:29.818Z,7.02
2018-10-09T02:07:42.192Z,7.02
2018-10-09T02:07:54.574Z,7.02
2018-10-09T02:08:06.998Z,7.02
2018-10-09T02:08:19.398Z,7.02
2018-10-09T02:08:31.783Z,7.02
2018-10-09T02:08:44.178Z,7.02
2018-10-09T02:08:56.581Z,7.02
2018-10-09T02:09:09.085Z,7.02
2018-10-09T02:09:21.548Z,7.02
2018-10-09T02:09:33.949Z,7.02
2018-10-09T02:09:46.345Z,7.02
2018-10-09T02:09:58.730Z,7.02
2018-10-09T02:10:11.128Z,7.02
2018-10-09T02:10:23.519Z,7.02
2018-10-09T02:10:35.891Z,7.02
2018-10-09T02:10:48.269Z,7.02
2018-10-09T02:11:00.705Z,7.02
2018-10-09T02:11:13.089Z,7.02
2018-10-09T02:11:25.507Z,7.02
2018-10-09T02:11:37.911Z,7.02
2018-10-09T02:11:50.291Z,7.02
2018-10-09T02:12:02.670Z,7.02
2018-10-09T02:12:15.056Z,7.02
2018-10-09T02:12:27.447Z,7.02
2018-10-09T02:12:39.954Z,7.02
2018-10-09T02:12:52.343Z,7.02
2018-10-09T02:13:04.718Z,7.02
2018-10-09T02:13:17.131Z,6.52
2018-10-09T02:13:29.536Z,6.52
2018-10-09T02:13:41.921Z,6.52
2018-10-09T02:13:54.302Z,6.52
2018-10-09T02:14:06.818Z,6.52
2018-10-09T02:14:19.478Z,6.52
2018-10-09T02:14:31.888Z,6.52
2018-10-09T02:14:44.346Z,6.52
2018-10-09T02:14:56.824Z,6.52
2018-10-09T02:15:09.231Z,6.52
2018-10-09T02:15:21.631Z,6.52
2018-10-09T02:15:34.030Z,6.52
2018-10-09T02:15:46.442Z,6.52
2018-10-09T02:15:58.848Z,6.52
2018-10-09T02:16:11.235Z,6.52
2018-10-09T02:16:23.648Z,6.52
2018-10-09T02:16:36.035Z,6.52
2018-10-09T02:16:48.434Z,6.52
2018-10-09T02:17:00.832Z,6.52
2018-10-09T02:17:13.393Z,6.52
2018-10-09T02:17:25.781Z,6.52
2018-10-09T02:17:38.206Z,6.52
2018-10-09T02:17:50.577Z,6.52
2018-10-09T02:18:02.954Z,6.52
2018-10-09T02:18:15.317Z,6.52
2018-10-09T02:18:27.716Z,6.52
2018-10-09T02:18:40.191Z,6.52
2018-10-09T02:18:52.639Z,6.52
2018-10-09T02:19:05.034Z,6.52
2018-10-09T02:19:17.432Z,6.52
2018-10-09T02:19:29.906Z,6.52
2018-10-09T02:19:42.361Z,6.52
2018-10-09T02:19:54.771Z,6.52
2018-10-09T02:20:07.400Z,6.52
2018-10-09T02:20:19.783Z,6.52
2018-10-09T02:20:32.161Z,6.52
2018-10-09T02:20:44.542Z,6.52
2018-10-09T02:20:57.053Z,6.52
2018-10-09T02:21:09.441Z,6.52
2018-10-09T02:21:21.873Z,6.52
2018-10-09T02:21:34.262Z,6.52
2018-10-09T02:21:46.650Z,6.52
2018-10-09T02:21:59.029Z,6.52
2018-10-09T02:22:11.424Z,6.52
2018-10-09T02:22:23.798Z,6.52
2018-10-09T02:22:36.173Z,6.52
2018-10-09T02:22:48.549Z,6.52
2018-10-09T02:23:00.948Z,6.52
2018-10-09T02:23:13.330Z,6.52
2018-10-09T02:23:25.696Z,6.52
2018-10-09T02:23:38.087Z,6.52
2018-10-09T02:23:50.519Z,6.52
2018-10-09T02:24:02.991Z,6.52
2018-10-09T02:24:15.626Z,6.52
2018-10-09T02:24:28.282Z,6.52
2018-10-09T02:24:40.729Z,6.52
2018-10-09T02:24:53.333Z,6.52
2018-10-09T02:25:05.806Z,6.52
2018-10-09T02:25:18.321Z,6.52
2018-10-09T02:25:30.772Z,6.87
2018-10-09T02:25:43.279Z,6.87
2018-10-09T02:25:55.772Z,6.87
2018-10-09T02:26:08.185Z,6.87
2018-10-09T02:26:20.590Z,6.87
2018-10-09T02:26:33.036Z,6.87
2018-10-09T02:26:45.426Z,6.87
2018-10-09T02:26:57.801Z,6.87
2018-10-09T02:27:10.231Z,6.87
2018-10-09T02:27:22.663Z,6.87
2018-10-09T02:27:35.117Z,6.87
2018-10-09T02:27:47.522Z,6.87
2018-10-09T02:27:59.889Z,6.87
2018-10-09T02:28:12.254Z,6.87
2018-10-09T02:28:24.617Z,6.87
2018-10-09T02:28:36.983Z,6.87
2018-10-09T02:28:49.375Z,6.87
2018-10-09T02:29:01.793Z,6.87
2018-10-09T02:29:14.232Z,6.87
2018-10-09T02:29:26.708Z,6.87
2018-10-09T02:29:39.174Z,6.87
2018-10-09T02:29:51.804Z,6.87
2018-10-09T02:30:04.286Z,6.87
2018-10-09T02:30:16.726Z,6.87
2018-10-09T02:30:29.208Z,6.87
2018-10-09T02:30:41.680Z,6.87
2018-10-09T02:30:54.202Z,6.87
2018-10-09T02:31:06.661Z,6.87
2018-10-09T02:31:19.046Z,6.87
2018-10-09T02:31:31.426Z,6.87
2018-10-09T02:31:43.805Z,6.87
2018-10-09T02:31:56.181Z,6.87
2018-10-09T02:32:08.570Z,6.87
2018-10-09T02:32:21.067Z,6.87
2018-10-09T02:32:33.467Z,6.87
2018-10-09T02:32:45.847Z,6.87
2018-10-09T02:32:58.282Z,6.87
2018-10-09T02:33:10.775Z,6.87
2018-10-09T02:33:23.270Z,6.87
2018-10-09T02:33:36.476Z,6.87
2018-10-09T02:33:50.007Z,6.87
2018-10-09T02:34:02.476Z,6.87
2018-10-09T02:34:14.885Z,6.87
2018-10-09T02:34:27.276Z,6.87
2018-10-09T02:34:39.693Z,6.87
2018-10-09T02:34:52.090Z,6.87
2018-10-09T02:35:04.476Z,6.87
2018-10-09T02:35:16.888Z,6.87
2018-10-09T02:35:29.290Z,7.8
2018-10-09T02:35:41.674Z,7.8
2018-10-09T02:35:54.084Z,7.8
2018-10-09T02:36:06.651Z,7.8
2018-10-09T02:36:19.040Z,7.8
2018-10-09T02:36:31.436Z,7.8
2018-10-09T02:36:43.820Z,7.8
2018-10-09T02:36:56.207Z,7.8
2018-10-09T02:37:08.715Z,7.8
2018-10-09T02:37:21.182Z,7.8
2018-10-09T02:37:33.668Z,7.8
2018-10-09T02:37:46.130Z,7.8
2018-10-09T02:37:58.590Z,7.8
2018-10-09T02:38:10.959Z,7.8
2018-10-09T02:38:23.411Z,7.8
2018-10-09T02:38:35.828Z,7.8
2018-10-09T02:38:48.232Z,7.8
2018-10-09T02:39:00.617Z,7.8
2018-10-09T02:39:13.009Z,7.8
2018-10-09T02:39:25.458Z,7.8
2018-10-09T02:39:37.945Z,7.8
2018-10-09T02:39:50.513Z,7.8
2018-10-09T02:40:02.924Z,7.8
2018-10-09T02:40:15.406Z,7.8
2018-10-09T02:40:27.886Z,7.8
2018-10-09T02:40:40.279Z,7.8
2018-10-09T02:40:52.652Z,7.8
2018-10-09T02:41:05.036Z,7.8
2018-10-09T02:41:17.411Z,7.8
2018-10-09T02:41:29.794Z,7.8
2018-10-09T02:41:42.202Z,7.8
2018-10-09T02:41:54.607Z,7.8
2018-10-09T02:42:06.983Z,7.8
2018-10-09T02:42:19.394Z,7.8
2018-10-09T02:42:31.792Z,7.8
2018-10-09T02:42:44.177Z,7.8
2018-10-09T02:42:56.759Z,7.8
2018-10-09T02:43:09.183Z,7.8
2018-10-09T02:43:21.560Z,7.8
2018-10-09T02:43:33.964Z,7.8
2018-10-09T02:43:46.360Z,7.8
2018-10-09T02:43:58.789Z,7.8
2018-10-09T02:44:11.314Z,7.8
2018-10-09T02:44:23.706Z,7.8
2018-10-09T02:44:36.103Z,7.8
2018-10-09T02:44:48.516Z,7.8
2018-10-09T02:45:00.909Z,7.8
2018-10-09T02:45:13.320Z,7.8
2018-10-09T02:45:25.699Z,7.25
2018-10-09T02:45:38.112Z,7.25
2018-10-09T02:45:50.504Z,7.25